Time;durP1;ratioP1;P1;durP2;ratioP2;P2;SDS_P1;SDS_P2;PMS_P1;PMS_P2;Temp;Humidity;BMP_temperature;BMP_pressure;BME280_temperature;BME280_humidity;BME280_pressure;Samples;Min_cycle;Max_cycle;Signal;HPM_P1;HPM_P2
2023/04/16 00:00:21;;;;;;;0.15;0.15;;;6.40;99.90;;;;;;5007180;28;20065;-85
2023/04/16 00:02:46;;;;;;;0.20;0.20;;;6.30;99.90;;;;;;5007166;28;20500;-84
2023/04/16 00:05:13;;;;;;;0.40;0.40;;;6.20;99.90;;;;;;5009578;28;20091;-83
2023/04/16 00:07:39;;;;;;;0.65;0.65;;;6.30;99.90;;;;;;4995822;28;20034;-83
2023/04/16 00:10:06;;;;;;;0.40;0.40;;;6.30;99.90;;;;;;4998535;28;20039;-84
2023/04/16 00:12:32;;;;;;;0.17;0.17;;;6.40;99.90;;;;;;5009299;28;20030;-84
2023/04/16 00:14:58;;;;;;;0.10;0.10;;;6.50;99.90;;;;;;5008450;28;20694;-85
2023/04/16 00:17:23;;;;;;;0.10;0.10;;;6.50;99.90;;;;;;5006361;28;20026;-84
2023/04/16 00:19:49;;;;;;;0.20;0.20;;;6.50;99.90;;;;;;5009968;28;20381;-86
2023/04/16 00:22:15;;;;;;;0.10;0.10;;;6.50;99.90;;;;;;5009678;28;20030;-83
2023/04/16 00:24:41;;;;;;;0.20;0.20;;;6.50;99.90;;;;;;5007426;28;20061;-86
2023/04/16 00:27:06;;;;;;;0.15;0.15;;;6.40;99.90;;;;;;5008023;28;20105;-85
2023/04/16 00:29:33;;;;;;;0.10;0.10;;;6.40;99.90;;;;;;5010113;28;20084;-84
2023/04/16 00:31:59;;;;;;;0.10;0.10;;;6.40;99.90;;;;;;5007241;28;20104;-87
2023/04/16 00:34:25;;;;;;;0.20;0.20;;;6.40;99.90;;;;;;5005770;28;20149;-86
2023/04/16 00:36:51;;;;;;;0.13;0.13;;;6.40;99.90;;;;;;5005226;28;20037;-85
2023/04/16 00:39:16;;;;;;;0.10;0.10;;;6.50;99.90;;;;;;5002782;28;20044;-85
2023/04/16 00:41:43;;;;;;;0.10;0.10;;;6.50;99.90;;;;;;5003797;28;20030;-86
2023/04/16 00:44:08;;;;;;;0.80;0.80;;;6.40;99.90;;;;;;4998733;28;20684;-85
2023/04/16 00:46:35;;;;;;;0.45;0.45;;;6.40;99.90;;;;;;5004513;28;20034;-84
2023/04/16 00:49:02;;;;;;;0.10;0.10;;;6.20;99.90;;;;;;5001184;28;20033;-85
2023/04/16 00:51:28;;;;;;;0.40;0.40;;;6.20;99.90;;;;;;5003991;28;20461;-86
2023/04/16 00:53:54;;;;;;;0.20;0.20;;;6.10;99.90;;;;;;5005998;28;20026;-87
2023/04/16 00:56:22;;;;;;;0.17;0.17;;;6.10;99.90;;;;;;5007230;28;20038;-87
2023/04/16 00:58:48;;;;;;;2.08;1.50;;;6.10;99.90;;;;;;4993365;28;20123;-86
2023/04/16 01:01:14;;;;;;;0.22;0.22;;;6.20;99.90;;;;;;5000011;28;20120;-86
2023/04/16 01:03:44;;;;;;;0.10;0.10;;;6.10;99.90;;;;;;5003773;28;20026;-86
2023/04/16 01:06:11;;;;;;;0.20;0.20;;;6.10;99.90;;;;;;5004832;28;20552;-87
2023/04/16 01:08:37;;;;;;;0.52;0.52;;;6.10;99.90;;;;;;5001864;28;20022;-87
2023/04/16 01:11:03;;;;;;;0.10;0.10;;;6.30;99.90;;;;;;5010154;28;20133;-86
2023/04/16 01:13:29;;;;;;;0.10;0.10;;;6.60;99.90;;;;;;5007634;28;20456;-85
2023/04/16 01:15:55;;;;;;;0.30;0.30;;;6.80;99.90;;;;;;4999741;28;20026;-87
2023/04/16 01:18:21;;;;;;;0.10;0.10;;;7.00;99.90;;;;;;5005651;28;20508;-87
2023/04/16 01:20:48;;;;;;;2.60;1.08;;;7.10;99.90;;;;;;5005032;28;20069;-84
2023/04/16 01:23:14;;;;;;;0.20;0.20;;;7.10;99.90;;;;;;5007769;28;20037;-84
2023/04/16 01:25:40;;;;;;;0.20;0.20;;;7.10;99.90;;;;;;5006581;28;20117;-85
2023/04/16 01:28:06;;;;;;;1.92;1.42;;;7.00;99.90;;;;;;5006116;28;20025;-89
2023/04/16 01:30:32;;;;;;;0.45;0.45;;;7.10;99.90;;;;;;5002412;28;20109;-85
2023/04/16 01:32:58;;;;;;;0.85;0.85;;;7.10;99.90;;;;;;4998303;28;20851;-86
2023/04/16 01:35:24;;;;;;;0.38;0.38;;;7.10;99.90;;;;;;5003248;28;20026;-86
2023/04/16 01:37:50;;;;;;;0.50;0.50;;;7.10;99.90;;;;;;5003055;28;20015;-85
2023/04/16 01:40:17;;;;;;;0.20;0.20;;;7.10;99.90;;;;;;5003261;28;20301;-87
2023/04/16 01:42:42;;;;;;;0.57;0.57;;;7.10;99.90;;;;;;5005601;28;20045;-85
2023/04/16 01:45:08;;;;;;;0.80;0.80;;;7.20;99.90;;;;;;5009152;28;20054;-85
2023/04/16 01:47:34;;;;;;;0.10;0.10;;;7.10;99.90;;;;;;5000861;28;20040;-85
2023/04/16 01:50:00;;;;;;;0.10;0.10;;;7.20;99.90;;;;;;5004502;28;20022;-85
2023/04/16 01:52:26;;;;;;;0.30;0.30;;;7.20;99.90;;;;;;5002964;28;20038;-87
2023/04/16 01:54:51;;;;;;;0.22;0.22;;;7.20;99.90;;;;;;4998873;28;20022;-85
2023/04/16 01:57:17;;;;;;;0.20;0.20;;;7.30;99.90;;;;;;5002356;28;20046;-85
2023/04/16 01:59:43;;;;;;;0.10;0.10;;;7.20;99.90;;;;;;4990508;28;20554;-85
2023/04/16 02:02:10;;;;;;;0.20;0.20;;;7.20;99.90;;;;;;5001824;28;20058;-84
2023/04/16 02:04:37;;;;;;;0.10;0.10;;;7.20;99.90;;;;;;4998115;28;20026;-84
2023/04/16 02:07:04;;;;;;;;;;;7.10;99.90;;;;;;4993424;28;20022;-85
2023/04/16 02:09:29;;;;;;;0.10;0.10;;;7.00;99.90;;;;;;4996338;28;19960;-84
2023/04/16 02:11:55;;;;;;;0.20;0.20;;;6.80;99.90;;;;;;4996838;28;20148;-83
2023/04/16 02:14:24;;;;;;;0.10;0.10;;;6.70;99.90;;;;;;4996001;28;20105;-84
2023/04/16 02:16:52;;;;;;;0.30;0.30;;;6.60;99.90;;;;;;4995559;28;20039;-83
2023/04/16 02:19:17;;;;;;;0.20;0.20;;;6.50;99.90;;;;;;4992286;28;20109;-82
2023/04/16 02:21:43;;;;;;;0.30;0.30;;;6.30;99.90;;;;;;4998834;28;20608;-83
2023/04/16 02:24:09;;;;;;;0.63;0.63;;;6.30;99.90;;;;;;4999486;28;20557;-83
2023/04/16 02:26:34;;;;;;;0.15;0.15;;;6.20;99.90;;;;;;4997142;28;20038;-84
2023/04/16 02:29:00;;;;;;;0.30;0.30;;;6.20;99.90;;;;;;4995811;28;20054;-86
2023/04/16 02:31:27;;;;;;;0.82;0.82;;;6.20;99.90;;;;;;5004947;28;20041;-86
2023/04/16 02:33:53;;;;;;;0.43;0.43;;;6.10;99.90;;;;;;5002923;28;20014;-85
2023/04/16 02:36:19;;;;;;;0.20;0.20;;;6.10;99.90;;;;;;5004785;28;20717;-86
2023/04/16 02:38:45;;;;;;;0.65;0.65;;;6.10;99.90;;;;;;5003813;28;20032;-84
2023/04/16 02:41:10;;;;;;;0.10;0.10;;;6.00;99.90;;;;;;5006272;28;20053;-85
2023/04/16 02:43:36;;;;;;;0.10;0.10;;;5.90;99.90;;;;;;5006083;28;20072;-86
2023/04/16 02:46:02;;;;;;;0.20;0.20;;;6.00;99.90;;;;;;5005939;28;20029;-86
2023/04/16 02:48:27;;;;;;;0.10;0.10;;;6.10;99.90;;;;;;4997654;28;20704;-86
2023/04/16 02:50:53;;;;;;;0.52;0.52;;;6.10;99.90;;;;;;5002799;28;20478;-83
2023/04/16 02:53:19;;;;;;;0.10;0.10;;;6.00;99.90;;;;;;4998236;28;20488;-85
2023/04/16 02:55:54;;;;;;;0.10;0.10;;;6.00;99.90;;;;;;5003125;28;20460;-85
2023/04/16 02:58:21;;;;;;;0.10;0.10;;;6.10;99.90;;;;;;5003444;28;20085;-84
2023/04/16 03:00:47;;;;;;;0.10;0.10;;;6.10;99.90;;;;;;4996205;28;20035;-84
2023/04/16 03:03:13;;;;;;;0.10;0.10;;;6.30;99.90;;;;;;5002212;28;20042;-85
2023/04/16 03:05:38;;;;;;;0.10;0.10;;;6.20;99.90;;;;;;5006375;28;20026;-85
2023/04/16 03:08:05;;;;;;;0.10;0.10;;;6.20;99.90;;;;;;5006693;28;20029;-84
2023/04/16 03:10:31;;;;;;;0.15;0.15;;;6.10;99.90;;;;;;5011982;28;20033;-83
2023/04/16 03:12:57;;;;;;;0.13;0.13;;;6.10;99.90;;;;;;4998610;28;20042;-84
2023/04/16 03:15:24;;;;;;;2.05;0.25;;;6.00;99.90;;;;;;5004653;28;20116;-84
2023/04/16 03:17:50;;;;;;;0.10;0.10;;;6.00;99.90;;;;;;5005452;28;20022;-83
2023/04/16 03:20:16;;;;;;;0.20;0.20;;;6.10;99.90;;;;;;5007385;28;20506;-84
2023/04/16 03:22:42;;;;;;;0.10;0.10;;;6.20;99.90;;;;;;5009486;28;20026;-85
2023/04/16 03:25:08;;;;;;;0.10;0.10;;;6.30;99.90;;;;;;5009626;28;20021;-85
2023/04/16 03:27:34;;;;;;;0.17;0.17;;;6.30;99.90;;;;;;4997186;28;20050;-85
2023/04/16 03:30:00;;;;;;;0.43;0.43;;;6.30;99.90;;;;;;5005404;28;20061;-85
2023/04/16 03:32:26;;;;;;;0.10;0.10;;;6.30;99.90;;;;;;5004798;28;20394;-84
2023/04/16 03:34:51;;;;;;;0.10;0.10;;;6.20;99.90;;;;;;5006777;28;20026;-84
2023/04/16 03:37:17;;;;;;;0.10;0.10;;;6.20;99.90;;;;;;5008583;28;20030;-90
2023/04/16 03:39:43;;;;;;;0.63;0.63;;;6.30;99.90;;;;;;5007672;28;20029;-84
2023/04/16 03:42:08;;;;;;;0.13;0.13;;;6.30;99.90;;;;;;5011577;28;20104;-83
2023/04/16 03:44:34;;;;;;;0.20;0.20;;;6.20;99.90;;;;;;5003283;28;20624;-84
2023/04/16 03:47:00;;;;;;;0.17;0.17;;;6.10;99.90;;;;;;5003502;28;20088;-85
2023/04/16 03:49:26;;;;;;;0.70;0.57;;;5.90;99.90;;;;;;5004566;28;20028;-86
2023/04/16 03:51:51;;;;;;;0.10;0.10;;;5.80;99.90;;;;;;5008655;28;20038;-85
2023/04/16 03:54:17;;;;;;;0.30;0.30;;;5.60;99.90;;;;;;5004646;28;20034;-86
2023/04/16 03:56:43;;;;;;;0.32;0.32;;;5.50;99.90;;;;;;5004995;28;20022;-85
2023/04/16 03:59:09;;;;;;;0.38;0.38;;;5.50;99.90;;;;;;5008881;28;20379;-86
2023/04/16 04:01:35;;;;;;;0.10;0.10;;;5.50;99.90;;;;;;5012810;28;20034;-86
2023/04/16 04:04:00;;;;;;;1.30;0.85;;;5.50;99.90;;;;;;5004877;28;20587;-87
2023/04/16 04:06:26;;;;;;;0.20;0.20;;;5.40;99.90;;;;;;5007748;28;20109;-86
2023/04/16 04:08:52;;;;;;;0.20;0.20;;;5.30;99.90;;;;;;5003289;28;20124;-88
2023/04/16 04:11:18;;;;;;;0.10;0.10;;;5.30;99.90;;;;;;5007880;28;20096;-90
2023/04/16 04:13:44;;;;;;;0.35;0.30;;;5.30;99.90;;;;;;5010256;28;20046;-87
2023/04/16 04:16:10;;;;;;;0.20;0.20;;;5.30;99.90;;;;;;5008611;28;20061;-85
2023/04/16 04:18:36;;;;;;;0.10;0.10;;;5.30;99.90;;;;;;5005379;28;20053;-85
2023/04/16 04:21:07;;;;;;;0.20;0.20;;;5.30;99.90;;;;;;5009821;28;20109;-84
2023/04/16 04:23:34;;;;;;;0.10;0.10;;;5.30;99.90;;;;;;5005729;28;20579;-86
2023/04/16 04:26:02;;;;;;;0.10;0.10;;;5.30;99.90;;;;;;5003754;28;20033;-90
2023/04/16 04:28:29;;;;;;;1.77;0.32;;;5.20;99.90;;;;;;5007325;28;20842;-92
2023/04/16 04:30:56;;;;;;;0.28;0.28;;;5.30;99.90;;;;;;4998418;28;20519;-86
2023/04/16 04:33:22;;;;;;;0.63;0.63;;;5.20;99.90;;;;;;5007535;28;20029;-87
2023/04/16 04:35:47;;;;;;;0.10;0.10;;;5.30;99.90;;;;;;5007910;28;20809;-88
2023/04/16 04:38:13;;;;;;;0.10;0.10;;;5.30;99.90;;;;;;4997049;28;20112;-86
2023/04/16 04:40:39;;;;;;;0.00;0.00;;;5.30;99.90;;;;;;4990224;28;20053;-88
2023/04/16 04:43:04;;;;;;;0.10;0.10;;;5.20;99.90;;;;;;5005347;28;20045;-87
2023/04/16 04:45:30;;;;;;;0.10;0.10;;;5.20;99.90;;;;;;5005596;28;20041;-89
2023/04/16 04:47:56;;;;;;;0.17;0.17;;;5.10;99.90;;;;;;5007350;28;20439;-87
2023/04/16 04:50:22;;;;;;;0.10;0.10;;;5.10;99.90;;;;;;5005375;28;20544;-86
2023/04/16 04:52:48;;;;;;;0.52;0.40;;;5.00;99.90;;;;;;5005578;28;20586;-86
2023/04/16 04:55:14;;;;;;;0.10;0.10;;;4.80;99.90;;;;;;4999510;28;20030;-86
2023/04/16 04:57:41;;;;;;;0.20;0.20;;;4.80;99.90;;;;;;5002688;28;20057;-86
2023/04/16 05:00:07;;;;;;;0.30;0.30;;;4.80;99.90;;;;;;5001930;28;20034;-81
2023/04/16 05:02:33;;;;;;;0.30;0.30;;;4.90;99.90;;;;;;4995075;28;20026;-84
2023/04/16 05:04:59;;;;;;;0.10;0.10;;;5.10;99.90;;;;;;4993838;28;20076;-85
2023/04/16 05:07:24;;;;;;;0.50;0.25;;;5.10;99.90;;;;;;4996191;28;20237;-86
2023/04/16 05:09:50;;;;;;;0.10;0.10;;;5.10;99.90;;;;;;5001825;28;20030;-87
2023/04/16 05:12:16;;;;;;;0.20;0.20;;;5.20;99.90;;;;;;4994770;28;20041;-87
2023/04/16 05:14:42;;;;;;;0.28;0.28;;;5.30;99.90;;;;;;5003372;28;20018;-84
2023/04/16 05:17:09;;;;;;;0.10;0.10;;;5.30;99.90;;;;;;4995817;28;20114;-84
2023/04/16 05:19:35;;;;;;;0.68;0.68;;;5.40;99.90;;;;;;4993281;28;20030;-85
2023/04/16 05:22:01;;;;;;;0.88;0.77;;;5.40;99.90;;;;;;5000324;28;20026;-86
2023/04/16 05:24:27;;;;;;;0.30;0.30;;;5.40;99.90;;;;;;5004445;28;20537;-81
2023/04/16 05:26:53;;;;;;;0.17;0.17;;;5.30;99.90;;;;;;4999079;28;20029;-84
2023/04/16 05:29:19;;;;;;;0.82;0.82;;;5.50;99.90;;;;;;5001874;28;20034;-82
2023/04/16 05:31:45;;;;;;;0.43;0.43;;;6.00;99.90;;;;;;4999307;28;20053;-81
2023/04/16 05:34:11;;;;;;;0.15;0.15;;;6.50;99.90;;;;;;4996621;28;20030;-83
2023/04/16 05:36:37;;;;;;;0.30;0.28;;;7.10;99.90;;;;;;5004205;28;20044;-86
2023/04/16 05:39:02;;;;;;;0.30;0.30;;;7.30;99.90;;;;;;5005811;28;20022;-85
2023/04/16 05:41:28;;;;;;;0.28;0.22;;;6.90;99.90;;;;;;4992669;28;20112;-84
2023/04/16 05:43:54;;;;;;;0.20;0.20;;;6.80;99.90;;;;;;4999377;28;20026;-82
2023/04/16 05:46:19;;;;;;;0.17;0.17;;;6.70;99.90;;;;;;4994237;28;21009;-83
2023/04/16 05:48:45;;;;;;;0.47;0.47;;;6.70;99.90;;;;;;4993542;28;20026;-82
2023/04/16 05:51:11;;;;;;;0.10;0.10;;;6.60;99.90;;;;;;4999257;28;20045;-83
2023/04/16 05:53:36;;;;;;;0.20;0.20;;;6.60;99.90;;;;;;4991870;28;20583;-83
2023/04/16 05:56:05;;;;;;;0.10;0.10;;;6.60;99.90;;;;;;4997649;28;20533;-82
2023/04/16 05:58:30;;;;;;;0.10;0.10;;;7.60;99.90;;;;;;4998061;28;20078;-83
2023/04/16 06:00:56;;;;;;;0.47;0.47;;;8.50;99.90;;;;;;4998718;28;20109;-83
2023/04/16 06:03:22;;;;;;;0.10;0.10;;;9.30;99.90;;;;;;4995528;28;20106;-83
2023/04/16 06:05:47;;;;;;;0.10;0.10;;;10.00;98.30;;;;;;4992649;28;20084;-82
2023/04/16 06:08:13;;;;;;;0.20;0.20;;;10.50;96.60;;;;;;4997610;28;20533;-79
2023/04/16 06:10:39;;;;;;;0.00;0.00;;;10.20;96.40;;;;;;5002211;28;20532;-79
2023/04/16 06:13:04;;;;;;;0.10;0.10;;;10.20;96.90;;;;;;5006093;28;20096;-79
2023/04/16 06:15:30;;;;;;;0.10;0.10;;;10.10;96.60;;;;;;4999811;28;20034;-79
2023/04/16 06:17:56;;;;;;;0.10;0.10;;;9.90;96.90;;;;;;4995144;28;20771;-80
2023/04/16 06:20:22;;;;;;;0.10;0.10;;;9.70;97.30;;;;;;5006034;28;20060;-81
2023/04/16 06:22:48;;;;;;;0.10;0.10;;;9.70;97.70;;;;;;5004842;28;20303;-81
2023/04/16 06:25:13;;;;;;;0.10;0.10;;;9.80;97.60;;;;;;5005026;28;20099;-82
2023/04/16 06:27:39;;;;;;;4.03;0.57;;;10.20;96.30;;;;;;5005060;28;20025;-81
2023/04/16 06:30:11;;;;;;;0.17;0.17;;;10.70;95.50;;;;;;5004193;28;20030;-82
2023/04/16 06:32:37;;;;;;;6.40;1.00;;;11.10;94.50;;;;;;4996205;28;20125;-83
2023/04/16 06:35:02;;;;;;;0.17;0.17;;;11.60;93.70;;;;;;5001870;28;20026;-81
2023/04/16 06:37:28;;;;;;;0.00;0.00;;;12.10;92.70;;;;;;4992522;28;20096;-82
2023/04/16 06:39:54;;;;;;;0.40;0.40;;;12.80;91.60;;;;;;5003842;28;20493;-80
2023/04/16 06:42:19;;;;;;;0.20;0.20;;;13.80;89.80;;;;;;4995832;28;20042;-81
2023/04/16 06:44:45;;;;;;;0.10;0.10;;;14.30;87.10;;;;;;4997103;28;20080;-81
2023/04/16 06:47:11;;;;;;;0.10;0.10;;;14.60;85.70;;;;;;4996264;28;20026;-81
2023/04/16 06:49:38;;;;;;;0.10;0.10;;;14.80;84.10;;;;;;5004040;28;20057;-81
2023/04/16 06:52:04;;;;;;;0.17;0.17;;;14.00;85.20;;;;;;5000887;28;20050;-85
2023/04/16 06:54:30;;;;;;;1.00;0.93;;;14.20;84.70;;;;;;5003406;28;20071;-81
2023/04/16 06:56:55;;;;;;;1.60;0.40;;;14.50;85.60;;;;;;4997219;28;20061;-83
2023/04/16 06:59:21;;;;;;;0.23;0.23;;;15.00;81.50;;;;;;4999756;28;20034;-83
2023/04/16 07:01:47;;;;;;;0.13;0.13;;;15.00;80.30;;;;;;4995805;28;20034;-84
2023/04/16 07:04:12;;;;;;;0.33;0.33;;;14.70;81.80;;;;;;5001899;28;20035;-83
2023/04/16 07:06:38;;;;;;;0.20;0.20;;;15.30;79.40;;;;;;4997526;28;20030;-82
2023/04/16 07:09:04;;;;;;;0.47;0.47;;;15.50;79.20;;;;;;4997928;28;20038;-80
2023/04/16 07:11:30;;;;;;;0.13;0.13;;;15.60;78.50;;;;;;5004178;28;20041;-80
2023/04/16 07:13:56;;;;;;;0.10;0.10;;;15.50;79.30;;;;;;5004661;28;20760;-80
2023/04/16 07:16:22;;;;;;;0.43;0.43;;;15.80;78.70;;;;;;4998179;28;20118;-78
2023/04/16 07:18:47;;;;;;;0.30;0.30;;;15.70;78.20;;;;;;5004533;28;20066;-78
2023/04/16 07:21:13;;;;;;;0.20;0.20;;;16.20;76.70;;;;;;5004671;28;20034;-79
2023/04/16 07:23:39;;;;;;;0.40;0.40;;;16.20;76.20;;;;;;5002644;28;20599;-78
2023/04/16 07:26:05;;;;;;;2.63;0.93;;;16.40;75.40;;;;;;5005187;28;20764;-78
2023/04/16 07:28:30;;;;;;;0.20;0.20;;;16.20;75.80;;;;;;5004304;28;20501;-78
2023/04/16 07:30:56;;;;;;;0.00;0.00;;;15.80;77.00;;;;;;4995057;28;20533;-78
2023/04/16 07:33:23;;;;;;;0.10;0.10;;;15.80;76.60;;;;;;5004507;28;20037;-78
2023/04/16 07:35:48;;;;;;;0.13;0.13;;;16.90;74.90;;;;;;5004415;28;20029;-78
2023/04/16 07:38:15;;;;;;;0.00;0.00;;;16.90;73.20;;;;;;5003393;28;20436;-78
2023/04/16 07:40:41;;;;;;;0.52;0.30;;;17.00;73.00;;;;;;5004160;28;20026;-78
2023/04/16 07:43:06;;;;;;;0.00;0.00;;;17.70;71.60;;;;;;5002241;28;20697;-78
2023/04/16 07:45:32;;;;;;;0.17;0.17;;;17.70;71.60;;;;;;5004187;28;20036;-78
2023/04/16 07:47:57;;;;;;;0.00;0.00;;;18.10;70.60;;;;;;5003978;28;20033;-78
2023/04/16 07:50:24;;;;;;;4.23;0.77;;;18.80;69.80;;;;;;5004547;28;20109;-78
2023/04/16 07:52:49;;;;;;;0.40;0.40;;;18.30;70.30;;;;;;5003201;28;20069;-78
2023/04/16 07:55:15;;;;;;;0.23;0.23;;;18.90;69.80;;;;;;5002785;28;20034;-78
2023/04/16 07:57:41;;;;;;;0.20;0.20;;;18.20;68.90;;;;;;5002707;28;20056;-78
2023/04/16 08:00:08;;;;;;;0.00;0.00;;;18.20;69.20;;;;;;5003180;28;20030;-78
2023/04/16 08:02:34;;;;;;;0.00;0.00;;;18.30;69.70;;;;;;5003159;28;20580;-80
2023/04/16 08:05:00;;;;;;;0.28;0.28;;;18.60;68.70;;;;;;4999731;28;20050;-78
2023/04/16 08:07:25;;;;;;;1.27;0.63;;;18.20;69.70;;;;;;5002786;28;20038;-78
2023/04/16 08:09:52;;;;;;;0.30;0.30;;;17.70;68.30;;;;;;5002865;28;20018;-78
2023/04/16 08:12:17;;;;;;;0.00;0.00;;;18.10;70.20;;;;;;5002372;28;20034;-79
2023/04/16 08:14:44;;;;;;;21.02;0.40;;;18.20;69.80;;;;;;5001573;28;20041;-79
2023/04/16 08:17:16;;;;;;;0.00;0.00;;;18.60;68.90;;;;;;4994242;28;20112;-79
2023/04/16 08:19:46;;;;;;;0.10;0.10;;;18.50;69.00;;;;;;5003350;28;20033;-78
2023/04/16 08:22:12;;;;;;;0.00;0.00;;;18.30;69.50;;;;;;4996578;28;20030;-78
2023/04/16 08:24:38;;;;;;;0.17;0.17;;;17.40;68.40;;;;;;5003262;28;20523;-79
2023/04/16 08:27:04;;;;;;;0.10;0.10;;;18.00;70.00;;;;;;5002985;28;20034;-79
2023/04/16 08:29:29;;;;;;;0.20;0.20;;;18.20;70.00;;;;;;5002580;28;20116;-79
2023/04/16 08:31:55;;;;;;;0.57;0.53;;;18.70;69.80;;;;;;4997524;28;20735;-79
2023/04/16 08:34:21;;;;;;;0.17;0.17;;;19.10;68.00;;;;;;5001985;28;20056;-79
2023/04/16 08:36:47;;;;;;;0.00;0.00;;;19.50;67.10;;;;;;4996594;28;20527;-80
2023/04/16 08:39:13;;;;;;;0.03;0.03;;;19.90;66.50;;;;;;4992063;28;20042;-80
2023/04/16 08:41:42;;;;;;;0.07;0.07;;;18.90;66.10;;;;;;4990787;28;20038;-80
2023/04/16 08:44:12;;;;;;;0.08;0.08;;;18.40;68.60;;;;;;4995995;28;20574;-80
2023/04/16 08:46:40;;;;;;;0.30;0.30;;;19.30;68.70;;;;;;4997079;28;20481;-80
2023/04/16 08:49:07;;;;;;;0.10;0.10;;;19.50;67.20;;;;;;5003076;28;20858;-80
2023/04/16 08:51:34;;;;;;;0.00;0.00;;;18.40;68.10;;;;;;5001618;28;20702;-79
2023/04/16 08:54:08;;;;;;;0.30;0.30;;;18.80;67.80;;;;;;5001677;28;20030;-79
2023/04/16 08:56:40;;;;;;;0.00;0.00;;;19.60;67.90;;;;;;5000706;28;20022;-80
2023/04/16 08:59:06;;;;;;;0.00;0.00;;;20.60;65.50;;;;;;5001503;28;20041;-82
2023/04/16 09:01:32;;;;;;;1.73;1.02;;;20.20;65.70;;;;;;5002783;28;20416;-81
2023/04/16 09:04:01;;;;;;;0.10;0.10;;;20.50;65.00;;;;;;4999122;28;20030;-79
2023/04/16 09:06:27;;;;;;;0.30;0.30;;;20.10;65.20;;;;;;4992839;28;20053;-79
2023/04/16 09:08:53;;;;;;;0.25;0.25;;;20.50;65.40;;;;;;5000814;28;20076;-79
2023/04/16 09:11:20;;;;;;;0.47;0.47;;;21.60;66.40;;;;;;5000632;28;20143;-79
2023/04/16 09:13:46;;;;;;;0.00;0.00;;;23.30;62.70;;;;;;5002798;28;20539;-82
2023/04/16 09:16:12;;;;;;;;;;;23.80;61.50;;;;;;5001936;28;20034;-79
2023/04/16 09:18:38;;;;;;;;;;;24.00;58.70;;;;;;5002948;28;19936;-79
2023/04/16 09:21:04;;;;;;;;;;;24.30;59.20;;;;;;4999635;28;20672;-78
2023/04/16 09:23:29;;;;;;;;;;;24.50;58.40;;;;;;4998021;28;19914;-80
2023/04/16 09:25:57;;;;;;;;;;;23.70;59.00;;;;;;4994676;28;20365;-80
2023/04/16 09:28:42;;;;;;;;;;;24.10;58.50;;;;;;4997206;28;19967;-81
2023/04/16 09:31:11;;;;;;;;;;;24.20;57.30;;;;;;5017001;28;19909;-78
2023/04/16 09:33:36;;;;;;;;;;;24.30;56.90;;;;;;4996586;28;19919;-78
2023/04/16 09:36:02;;;;;;;;;;;24.00;55.70;;;;;;5002272;28;19909;-78
2023/04/16 09:38:44;;;;;;;;;;;24.30;56.10;;;;;;5002220;28;19913;-79
2023/04/16 09:41:10;;;;;;;;;;;22.00;59.50;;;;;;4996290;28;20158;-78
2023/04/16 09:43:36;;;;;;;;;;;21.10;62.60;;;;;;4993836;28;19921;-78
2023/04/16 09:46:05;;;;;;;;;;;20.60;61.30;;;;;;4996636;28;20457;-79
2023/04/16 09:48:32;;;;;;;;;;;22.60;59.40;;;;;;5002741;28;19913;-83
2023/04/16 09:50:58;;;;;;;;;;;21.10;59.40;;;;;;5002149;28;19971;-85
2023/04/16 09:53:30;;;;;;;;;;;19.30;63.80;;;;;;5001795;28;19921;-85
2023/04/16 09:55:56;;;;;;;;;;;20.60;65.80;;;;;;4998870;28;20667;-85
2023/04/16 09:58:23;;;;;;;;;;;20.70;63.50;;;;;;5004292;28;19926;-85
2023/04/16 10:00:54;;;;;;;;;;;21.00;61.60;;;;;;5004574;28;19964;-85
2023/04/16 10:03:27;;;;;;;;;;;22.30;61.00;;;;;;5001196;28;19913;-84
2023/04/16 10:05:52;;;;;;;;;;;20.70;62.20;;;;;;5019388;28;19921;-86
2023/04/16 10:08:18;;;;;;;;;;;20.80;61.30;;;;;;5000993;28;19917;-82
2023/04/16 10:10:44;;;;;;;;;;;20.60;60.60;;;;;;5005332;28;19912;-83
2023/04/16 10:13:11;;;;;;;;;;;19.20;63.90;;;;;;5004487;28;20032;-84
2023/04/16 10:15:37;;;;;;;;;;;19.10;64.70;;;;;;5002676;28;19917;-83
2023/04/16 10:18:03;;;;;;;;;;;18.60;64.70;;;;;;5005260;28;19920;-83
2023/04/16 10:20:29;;;;;;;;;;;18.40;65.10;;;;;;4994122;28;20004;-82
2023/04/16 10:22:55;;;;;;;;;;;17.70;66.60;;;;;;5000934;28;19920;-85
2023/04/16 10:25:21;;;;;;;;;;;17.60;66.00;;;;;;4998767;28;19924;-85
2023/04/16 10:27:47;;;;;;;;;;;17.80;66.20;;;;;;5005085;28;19913;-84
2023/04/16 10:30:14;;;;;;;;;;;17.80;66.90;;;;;;5012885;28;19919;-82
2023/04/16 10:32:40;;;;;;;;;;;18.00;67.70;;;;;;5003580;28;19955;-83
2023/04/16 10:35:06;;;;;;;;;;;18.50;66.40;;;;;;4995113;28;19909;-81
2023/04/16 10:37:32;;;;;;;;;;;18.30;67.40;;;;;;5004612;28;20807;-83
2023/04/16 10:40:00;;;;;;;;;;;17.70;66.60;;;;;;5005283;28;20733;-85
2023/04/16 10:42:26;;;;;;;;;;;17.40;67.50;;;;;;5005364;28;19983;-82
2023/04/16 10:44:51;;;;;;;;;;;17.30;70.30;;;;;;4996208;28;20376;-82
2023/04/16 10:47:17;;;;;;;;;;;16.80;69.10;;;;;;5005806;28;19917;-77
2023/04/16 10:49:43;;;;;;;;;;;17.80;68.60;;;;;;4997446;28;20685;-79
2023/04/16 10:52:10;;;;;;;;;;;17.40;68.70;;;;;;5004840;28;19957;-79
2023/04/16 10:54:35;;;;;;;;;;;16.90;70.30;;;;;;5005332;28;19920;-79
2023/04/16 10:57:05;;;;;;;;;;;17.70;69.30;;;;;;5003805;28;19921;-79
2023/04/16 10:59:33;;;;;;;;;;;17.70;69.60;;;;;;5001594;28;19917;-79
2023/04/16 11:02:02;;;;;;;;;;;18.00;70.10;;;;;;5005308;28;20024;-79
2023/04/16 11:04:31;;;;;;;;;;;17.40;72.80;;;;;;4998814;28;19920;-79
2023/04/16 11:07:12;;;;;;;;;;;17.50;71.80;;;;;;4996491;28;19996;-79
2023/04/16 11:09:41;;;;;;;;;;;16.60;70.90;;;;;;5005119;28;20000;-79
2023/04/16 11:12:07;;;;;;;;;;;16.70;68.70;;;;;;5005281;28;19924;-79
2023/04/16 11:14:32;;;;;;;;;;;17.10;73.90;;;;;;5000865;28;19910;-79
2023/04/16 11:17:01;;;;;;;;;;;17.80;70.40;;;;;;5007288;28;19913;-79
2023/04/16 11:19:27;;;;;;;;;;;17.50;69.80;;;;;;5004473;28;19914;-79
2023/04/16 11:21:53;;;;;;;;;;;17.20;71.40;;;;;;5004069;28;19914;-79
2023/04/16 11:24:19;;;;;;;;;;;16.90;70.40;;;;;;4998900;28;19919;-79
2023/04/16 11:26:44;;;;;;;;;;;17.10;74.00;;;;;;4992503;28;19933;-79
2023/04/16 11:29:14;;;;;;;;;;;16.90;75.80;;;;;;5004284;28;20015;-78
2023/04/16 11:31:39;;;;;;;;;;;16.60;73.30;;;;;;4994502;28;19983;-79
2023/04/16 11:34:07;;;;;;;;;;;16.70;76.40;;;;;;5003661;28;20427;-79
2023/04/16 11:36:42;;;;;;;;;;;17.00;73.70;;;;;;5001819;28;19913;-79
2023/04/16 11:39:08;;;;;;;;;;;17.20;76.00;;;;;;4998765;28;19913;-80
2023/04/16 11:41:33;;;;;;;;;;;17.10;76.30;;;;;;4998474;28;19910;-79
2023/04/16 11:43:59;;;;;;;;;;;17.10;74.80;;;;;;5003129;28;20005;-79
2023/04/16 11:46:36;;;;;;;;;;;16.70;74.00;;;;;;5004735;28;19931;-79
2023/04/16 11:49:02;;;;;;;;;;;17.00;73.20;;;;;;4995262;28;20378;-78
2023/04/16 11:51:28;;;;;;;;;;;17.10;75.70;;;;;;5001511;28;19975;-79
2023/04/16 11:53:54;;;;;;;;;;;16.80;75.00;;;;;;4990309;28;19914;-79
2023/04/16 11:56:30;;;;;;;;;;;16.60;73.20;;;;;;5003158;28;19914;-79
2023/04/16 11:59:12;;;;;;;;;;;16.10;74.50;;;;;;4998956;28;20475;-78
2023/04/16 12:01:38;;;;;;;;;;;16.10;74.40;;;;;;5000724;28;20272;-79
2023/04/16 12:04:04;;;;;;;;;;;16.30;75.70;;;;;;5002312;28;20503;-79
2023/04/16 12:06:33;;;;;;;;;;;16.40;73.30;;;;;;4995544;28;20418;-79
2023/04/16 12:08:59;;;;;;;;;;;16.50;73.10;;;;;;5003271;28;19975;-79
2023/04/16 12:11:40;;;;;;;;;;;16.70;72.10;;;;;;5003912;28;19943;-79
2023/04/16 12:14:11;;;;;;;;;;;16.70;68.50;;;;;;4997420;28;19933;-79
2023/04/16 12:16:37;;;;;;;;;;;16.80;66.30;;;;;;5002319;28;19917;-79
2023/04/16 12:19:03;;;;;;;;;;;16.50;64.50;;;;;;5001602;28;20395;-79
2023/04/16 12:21:35;;;;;;;;;;;16.50;62.10;;;;;;4991141;28;19929;-83
2023/04/16 12:24:01;;;;;;;;;;;16.10;55.10;;;;;;4997988;28;20011;-86
2023/04/16 12:26:26;;;;;;;;;;;16.30;57.40;;;;;;5001884;28;20098;-83
2023/04/16 12:28:52;;;;;;;;;;;16.40;59.40;;;;;;4999096;28;20017;-83
2023/04/16 12:31:35;;;;;;;;;;;16.50;61.20;;;;;;4999426;28;19949;-82
2023/04/16 12:34:01;;;;;;;;;;;16.70;65.50;;;;;;4999018;28;19925;-85
2023/04/16 12:36:27;;;;;;;;;;;16.80;64.10;;;;;;4996653;28;19920;-83
2023/04/16 12:38:52;;;;;;;;;;;16.70;59.40;;;;;;5002924;28;19918;-83
2023/04/16 12:41:18;;;;;;;;;;;16.50;56.90;;;;;;5002647;28;20543;-82
2023/04/16 12:43:43;;;;;;;;;;;16.70;59.70;;;;;;5001753;28;19910;-84
2023/04/16 12:46:09;;;;;;;;;;;16.70;61.70;;;;;;5001838;28;19909;-79
2023/04/16 12:48:35;;;;;;;;;;;16.70;62.90;;;;;;4991579;28;19920;-82
2023/04/16 12:51:00;;;;;;;;;;;16.60;58.70;;;;;;4999586;28;19913;-82
2023/04/16 12:53:26;;;;;;;;;;;16.30;56.80;;;;;;4999131;28;19971;-80
2023/04/16 12:55:51;;;;;;;;;;;16.60;59.20;;;;;;5001243;28;19913;-82
2023/04/16 12:58:17;;;;;;;;;;;16.50;56.70;;;;;;4995960;28;20044;-81
2023/04/16 13:00:43;;;;;;;;;;;16.60;54.90;;;;;;5001051;28;20067;-81
2023/04/16 13:03:08;;;;;;;;;;;16.50;57.10;;;;;;4999447;28;19920;-81
2023/04/16 13:05:34;;;;;;;;;;;16.50;60.50;;;;;;5002435;28;19909;-85
2023/04/16 13:08:00;;;;;;;;;;;16.50;61.90;;;;;;5002559;28;19916;-80
2023/04/16 13:10:26;;;;;;;;;;;16.10;56.60;;;;;;4997942;28;19924;-81
2023/04/16 13:12:52;;;;;;;;;;;15.90;56.30;;;;;;4995835;28;20348;-81